createdAt,value
2022-08-20T00:01:01.593Z,98193.00
2022-08-20T00:03:32.110Z,98192.47
2022-08-20T00:06:02.239Z,98188.75
2022-08-20T00:08:29.185Z,98201.06
2022-08-20T00:10:56.720Z,98198.00
2022-08-20T00:13:36.408Z,98195.47
2022-08-20T00:16:04.332Z,98191.25
2022-08-20T00:18:31.024Z,98206.50
2022-08-20T00:20:57.941Z,98204.03
2022-08-20T00:23:25.495Z,98206.03
2022-08-20T00:25:52.221Z,98206.97
2022-08-20T00:28:18.988Z,98204.38
2022-08-20T00:30:46.291Z,98205.50
2022-08-20T00:33:16.838Z,98207.81
2022-08-20T00:35:46.851Z,98204.59
2022-08-20T00:38:13.650Z,98200.06
2022-08-20T00:40:47.112Z,98200.06
2022-08-20T00:43:38.594Z,98208.41
2022-08-20T00:46:11.776Z,98207.66
2022-08-20T00:48:41.060Z,98222.25
2022-08-20T00:51:31.234Z,98222.38
2022-08-20T00:54:14.167Z,98220.38
2022-08-20T00:56:44.092Z,98229.22
2022-08-20T00:59:16.409Z,98222.25
2022-08-20T01:01:55.278Z,98225.59
2022-08-20T01:04:25.409Z,98227.97
2022-08-20T01:06:52.464Z,98227.31
2022-08-20T01:09:50.556Z,98238.53
2022-08-20T01:12:07.895Z,98245.97
2022-08-20T01:14:34.524Z,98249.53
2022-08-20T01:17:05.836Z,98248.19
2022-08-20T01:19:41.239Z,98246.97
2022-08-20T01:22:27.031Z,98251.13
2022-08-20T01:24:59.991Z,98245.75
2022-08-20T01:27:27.274Z,98248.66
2022-08-20T01:29:57.833Z,98242.13
2022-08-20T01:32:24.805Z,98243.97
2022-08-20T01:34:51.521Z,98248.97
2022-08-20T01:37:18.121Z,98252.31
2022-08-20T01:39:44.814Z,98252.22
2022-08-20T01:42:18.141Z,98255.66
2022-08-20T01:44:47.045Z,98255.38
2022-08-20T01:47:16.013Z,98256.00
2022-08-20T01:49:46.820Z,98260.75
2022-08-20T01:52:24.471Z,98259.19
2022-08-20T01:54:52.274Z,98264.50
2022-08-20T01:57:20.662Z,98263.06
2022-08-20T01:59:48.156Z,98256.88
2022-08-20T02:02:14.774Z,98258.66
2022-08-20T02:04:41.711Z,98262.84
2022-08-20T02:07:14.646Z,98268.88
2022-08-20T02:09:41.329Z,98267.84
2022-08-20T02:12:09.355Z,98267.09
2022-08-20T02:14:40.296Z,98271.66
2022-08-20T02:17:07.045Z,98275.91
2022-08-20T02:19:43.235Z,98266.63
2022-08-20T02:22:24.603Z,98269.94
2022-08-20T02:24:51.570Z,98274.22
2022-08-20T02:27:23.642Z,98268.09
2022-08-20T02:29:51.286Z,98275.91
2022-08-20T02:32:24.476Z,98283.00
2022-08-20T02:35:03.601Z,98284.88
2022-08-20T02:37:30.818Z,98279.97
2022-08-20T02:39:57.486Z,98283.69
2022-08-20T02:42:24.051Z,98274.69
2022-08-20T02:44:50.599Z,98276.38
2022-08-20T02:47:17.374Z,98271.69
2022-08-20T02:49:44.118Z,98270.09
2022-08-20T02:52:11.025Z,98264.91
2022-08-20T02:54:37.560Z,98265.34
2022-08-20T02:57:04.626Z,98256.69
2022-08-20T02:59:31.476Z,98258.59
2022-08-20T03:01:59.958Z,98254.31
2022-08-20T03:04:29.107Z,98253.19
2022-08-20T03:06:55.815Z,98255.50
2022-08-20T03:09:22.350Z,98256.13
2022-08-20T03:11:49.257Z,98260.75
2022-08-20T03:14:15.878Z,98260.84
2022-08-20T03:16:43.101Z,98255.84
2022-08-20T03:19:09.763Z,98252.63
2022-08-20T03:21:36.741Z,98260.22
2022-08-20T03:24:03.429Z,98257.72
2022-08-20T03:26:29.956Z,98248.13
2022-08-20T03:28:56.535Z,98254.50
2022-08-20T03:31:23.265Z,98249.19
2022-08-20T03:33:53.599Z,98255.03
2022-08-20T03:36:27.716Z,98253.47
2022-08-20T03:39:00.671Z,98250.53
2022-08-20T03:41:28.645Z,98251.59
2022-08-20T03:43:55.239Z,98247.84
2022-08-20T03:46:22.045Z,98252.84
2022-08-20T03:48:50.015Z,98249.69
2022-08-20T03:51:23.059Z,98243.88
2022-08-20T03:53:49.655Z,98259.50
2022-08-20T03:56:17.340Z,98259.50
2022-08-20T03:58:44.279Z,98260.75
2022-08-20T04:01:36.835Z,98266.38
2022-08-20T04:03:58.835Z,98270.50
2022-08-20T04:06:26.653Z,98281.03
2022-08-20T04:08:54.044Z,98274.81
2022-08-20T04:11:20.630Z,98272.81
2022-08-20T04:13:47.206Z,98270.50
2022-08-20T04:16:16.235Z,98270.50
2022-08-20T04:18:43.506Z,98271.75
2022-08-20T04:21:32.711Z,98262.47
2022-08-20T04:24:01.147Z,98267.38
2022-08-20T04:26:27.873Z,98278.84
2022-08-20T04:28:55.542Z,98281.25
2022-08-20T04:31:31.256Z,98285.84
2022-08-20T04:33:57.833Z,98284.19
2022-08-20T04:36:24.587Z,98283.88
2022-08-20T04:38:51.270Z,98285.56
2022-08-20T04:41:23.131Z,98286.81
2022-08-20T04:43:54.537Z,98293.00
2022-08-20T04:46:23.566Z,98290.09
2022-08-20T04:48:50.578Z,98291.34
2022-08-20T04:51:18.340Z,98292.97
2022-08-20T04:53:51.966Z,98294.53
2022-08-20T04:56:23.385Z,98299.44
2022-08-20T04:58:51.183Z,98303.09
2022-08-20T05:01:20.443Z,98297.47
2022-08-20T05:03:50.040Z,98302.13
2022-08-20T05:06:18.037Z,98306.13
2022-08-20T05:08:45.348Z,98312.84
2022-08-20T05:11:34.277Z,98306.28
2022-08-20T05:13:58.877Z,98308.56
2022-08-20T05:16:25.679Z,98318.78
2022-08-20T05:18:52.980Z,98315.16
2022-08-20T05:21:20.934Z,98317.75
2022-08-20T05:23:49.117Z,98325.06
2022-08-20T05:26:16.256Z,98325.16
2022-08-20T05:28:57.338Z,98334.75
2022-08-20T05:31:31.734Z,98326.13
2022-08-20T05:33:59.955Z,98328.28
2022-08-20T05:36:26.965Z,98331.00
2022-08-20T05:38:53.856Z,98332.16
2022-08-20T05:41:29.110Z,98339.38
2022-08-20T05:43:59.603Z,98342.44
2022-08-20T05:46:26.282Z,98346.94
2022-08-20T05:48:52.978Z,98342.44
2022-08-20T05:51:19.484Z,98338.09
2022-08-20T05:53:46.081Z,98345.72
2022-08-20T05:56:12.718Z,98343.94
2022-08-20T05:58:39.597Z,98341.56
2022-08-20T06:01:06.350Z,98332.56
2022-08-20T06:03:51.657Z,98337.06
2022-08-20T06:06:45.070Z,98338.94
2022-08-20T06:09:04.848Z,98343.94
2022-08-20T06:11:36.505Z,98338.53
2022-08-20T06:14:04.686Z,98340.94
2022-08-20T06:16:31.232Z,98348.25
2022-08-20T06:18:58.506Z,98340.94
2022-08-20T06:21:25.690Z,98336.97
2022-08-20T06:23:58.288Z,98342.50
2022-08-20T06:26:30.222Z,98344.47
2022-08-20T06:29:05.633Z,98344.91
2022-08-20T06:31:32.733Z,98343.16
2022-08-20T06:33:59.379Z,98339.59
2022-08-20T06:36:26.097Z,98337.81
2022-08-20T06:38:55.018Z,98345.22
2022-08-20T06:41:21.670Z,98348.41
2022-08-20T06:43:48.743Z,98343.53
2022-08-20T06:46:15.571Z,98349.44
2022-08-20T06:48:42.240Z,98354.09
2022-08-20T06:51:09.818Z,98348.38
2022-08-20T06:53:36.247Z,98359.94
2022-08-20T06:56:03.380Z,98356.88
2022-08-20T06:58:36.941Z,98356.75
2022-08-20T07:01:11.094Z,98352.44
2022-08-20T07:03:54.751Z,98358.91
2022-08-20T07:06:22.033Z,98355.44
2022-08-20T07:08:48.686Z,98355.47
2022-08-20T07:11:15.347Z,98357.03
2022-08-20T07:13:42.432Z,98357.59
2022-08-20T07:16:09.114Z,98365.97
2022-08-20T07:18:36.355Z,98364.63
2022-08-20T07:21:03.162Z,98363.59
2022-08-20T07:23:31.538Z,98358.50
2022-08-20T07:25:58.366Z,98357.94
2022-08-20T07:28:28.634Z,98365.13
2022-08-20T07:31:15.795Z,98369.22
2022-08-20T07:33:44.282Z,98374.22
2022-08-20T07:36:12.124Z,98373.06
2022-08-20T07:38:38.734Z,98371.06
2022-08-20T07:41:09.937Z,98372.28
2022-08-20T07:43:36.671Z,98378.69
2022-08-20T07:46:09.306Z,98380.91
2022-08-20T07:48:39.924Z,98386.78
2022-08-20T07:51:07.688Z,98384.84
2022-08-20T07:53:36.610Z,98386.88
2022-08-20T07:56:08.381Z,98385.59
2022-08-20T07:58:36.714Z,98387.31
2022-08-20T08:01:05.668Z,98387.78
2022-08-20T08:03:39.356Z,98381.78
2022-08-20T08:06:15.682Z,98389.44
2022-08-20T08:08:47.050Z,98384.03
2022-08-20T08:11:13.833Z,98381.41
2022-08-20T08:13:41.781Z,98382.13
2022-08-20T08:16:09.363Z,98382.50
2022-08-20T08:18:38.077Z,98379.94
2022-08-20T08:21:06.455Z,98383.84
2022-08-20T08:23:34.616Z,98371.88
2022-08-20T08:26:01.537Z,98377.44
2022-08-20T08:28:31.014Z,98369.97
2022-08-20T08:30:57.797Z,98369.50
2022-08-20T08:33:33.497Z,98361.94
2022-08-20T08:36:05.643Z,98372.84
2022-08-20T08:38:34.306Z,98369.81
2022-08-20T08:41:29.242Z,98370.44
2022-08-20T08:44:01.852Z,98372.94
2022-08-20T08:46:49.549Z,98379.44
2022-08-20T08:49:19.562Z,98374.66
2022-08-20T08:51:54.307Z,98381.78
2022-08-20T08:54:25.891Z,98383.00
2022-08-20T08:56:53.097Z,98377.06
2022-08-20T08:59:21.508Z,98372.50
2022-08-20T09:01:56.621Z,98378.94
2022-08-20T09:04:31.479Z,98373.47
2022-08-20T09:06:58.721Z,98373.50
2022-08-20T09:09:28.967Z,98369.50
2022-08-20T09:11:58.043Z,98371.16
2022-08-20T09:14:25.026Z,98370.66
2022-08-20T09:16:52.749Z,98363.25
2022-08-20T09:19:21.241Z,98364.03
2022-08-20T09:21:48.202Z,98365.72
2022-08-20T09:24:14.844Z,98373.47
2022-08-20T09:26:41.480Z,98362.16
2022-08-20T09:29:08.206Z,98368.78
2022-08-20T09:31:35.734Z,98356.34
2022-08-20T09:34:04.810Z,98360.19
2022-08-20T09:36:32.666Z,98355.16
2022-08-20T09:39:00.469Z,98359.44
2022-08-20T09:41:26.947Z,98360.06
2022-08-20T09:43:54.463Z,98352.47
2022-08-20T09:46:20.970Z,98355.84
2022-08-20T09:48:54.151Z,98349.38
2022-08-20T09:51:20.824Z,98349.44
2022-08-20T09:53:47.536Z,98353.72
2022-08-20T09:56:14.161Z,98350.38
2022-08-20T09:58:47.341Z,98349.72
2022-08-20T10:01:16.101Z,98352.72
2022-08-20T10:03:44.334Z,98362.78
2022-08-20T10:06:11.424Z,98359.88
2022-08-20T10:08:38.473Z,98355.81
2022-08-20T10:11:05.213Z,98364.59
2022-08-20T10:13:31.815Z,98363.75
2022-08-20T10:15:58.415Z,98356.22
2022-08-20T10:18:24.985Z,98361.19
2022-08-20T10:20:51.542Z,98368.47
2022-08-20T10:23:18.049Z,98366.59
2022-08-20T10:25:44.687Z,98353.88
2022-08-20T10:28:11.713Z,98361.31
2022-08-20T10:30:38.439Z,98353.31
2022-08-20T10:33:05.067Z,98361.00
2022-08-20T10:35:31.716Z,98347.72
2022-08-20T10:37:58.852Z,98357.81
2022-08-20T10:40:25.672Z,98347.25
2022-08-20T10:42:52.292Z,98348.78
2022-08-20T10:45:18.939Z,98357.25
2022-08-20T10:47:45.579Z,98352.63
2022-08-20T10:50:15.940Z,98352.63
2022-08-20T10:52:42.902Z,98348.34
2022-08-20T10:55:10.336Z,98341.00
2022-08-20T10:57:39.333Z,98336.94
2022-08-20T11:00:09.217Z,98346.16
2022-08-20T11:02:36.329Z,98334.72
2022-08-20T11:05:03.378Z,98344.81
2022-08-20T11:07:49.791Z,98337.88
2022-08-20T11:10:20.389Z,98344.41
2022-08-20T11:12:47.048Z,98344.41
2022-08-20T11:15:15.129Z,98344.00
2022-08-20T11:17:43.208Z,98351.81
2022-08-20T11:20:12.149Z,98342.56
2022-08-20T11:22:38.956Z,98359.22
2022-08-20T11:25:07.192Z,98364.84
2022-08-20T11:27:39.410Z,98362.78
2022-08-20T11:30:09.180Z,98360.47
2022-08-20T11:32:36.053Z,98359.34
2022-08-20T11:35:18.799Z,98358.13
2022-08-20T11:37:53.649Z,98352.16
2022-08-20T11:40:20.766Z,98357.13
2022-08-20T11:43:11.026Z,98359.09
2022-08-20T11:45:37.677Z,98358.00
2022-08-20T11:48:04.938Z,98366.59
2022-08-20T11:50:31.664Z,98369.91
2022-08-20T11:52:58.379Z,98363.94
2022-08-20T11:55:28.624Z,98371.25
2022-08-20T11:58:00.371Z,98366.22
2022-08-20T12:00:31.861Z,98388.16
2022-08-20T12:03:00.788Z,98381.56
2022-08-20T12:05:29.423Z,98391.44
2022-08-20T12:07:56.148Z,98395.53
2022-08-20T12:10:24.420Z,98408.06
2022-08-20T12:12:51.056Z,98411.19
2022-08-20T12:15:17.657Z,98410.59
2022-08-20T12:17:44.239Z,98405.38
2022-08-20T12:20:12.724Z,98409.31
2022-08-20T12:22:39.809Z,98406.66
2022-08-20T12:25:07.556Z,98401.88
2022-08-20T12:27:35.932Z,98395.41
2022-08-20T12:30:09.489Z,98405.78
2022-08-20T12:32:36.158Z,98393.28
2022-08-20T12:35:05.772Z,98398.56
2022-08-20T12:37:32.736Z,98388.38
2022-08-20T12:40:00.892Z,98382.31
2022-08-20T12:42:30.323Z,98372.72
2022-08-20T12:44:58.180Z,98378.78
2022-08-20T12:47:30.612Z,98372.84
2022-08-20T12:50:06.651Z,98371.09
2022-08-20T12:52:33.715Z,98368.69
2022-08-20T12:55:00.745Z,98365.00
2022-08-20T12:57:28.296Z,98364.25
2022-08-20T12:59:56.776Z,98365.97
2022-08-20T13:02:25.949Z,98375.00
2022-08-20T13:04:52.979Z,98387.47
2022-08-20T13:07:19.741Z,98400.50
2022-08-20T13:09:46.368Z,98408.88
2022-08-20T13:12:14.392Z,98422.31
2022-08-20T13:14:42.059Z,98417.78
2022-08-20T13:17:09.008Z,98411.59
2022-08-20T13:19:37.083Z,98408.19
2022-08-20T13:22:04.313Z,98399.41
2022-08-20T13:24:31.261Z,98397.41
2022-08-20T13:27:27.766Z,98406.53
2022-08-20T13:29:58.628Z,98397.91
2022-08-20T13:32:26.061Z,98400.91
2022-08-20T13:34:52.703Z,98399.66
2022-08-20T13:37:25.782Z,98401.50
2022-08-20T13:39:54.093Z,98390.13
2022-08-20T13:42:20.806Z,98388.97
2022-08-20T13:44:47.523Z,98389.31
2022-08-20T13:47:19.411Z,98387.44
2022-08-20T13:49:46.598Z,98380.47
2022-08-20T13:52:13.755Z,98390.25
2022-08-20T13:54:43.756Z,98390.03
2022-08-20T13:57:13.030Z,98387.78
2022-08-20T13:59:42.112Z,98393.19
2022-08-20T14:02:09.996Z,98376.50
2022-08-20T14:04:36.931Z,98376.41
2022-08-20T14:07:20.831Z,98368.47
2022-08-20T14:09:51.611Z,98363.28
2022-08-20T14:12:18.156Z,98360.44
2022-08-20T14:14:44.765Z,98360.25
2022-08-20T14:17:16.150Z,98364.13
2022-08-20T14:19:43.182Z,98363.72
2022-08-20T14:22:09.807Z,98358.88
2022-08-20T14:24:36.442Z,98358.78
2022-08-20T14:27:05.150Z,98354.72
2022-08-20T14:32:04.527Z,98339.22
2022-08-20T14:34:31.897Z,98339.91
2022-08-20T14:37:10.352Z,98338.09
2022-08-20T14:39:37.038Z,98336.50
2022-08-20T14:42:03.728Z,98332.59
2022-08-20T14:44:30.288Z,98337.69
2022-08-20T14:46:56.885Z,98333.31
2022-08-20T14:49:23.459Z,98336.13
2022-08-20T14:51:50.073Z,98338.75
2022-08-20T14:54:16.657Z,98333.47
2022-08-20T14:56:43.210Z,98332.44
2022-08-20T14:59:09.851Z,98334.38
2022-08-20T15:01:36.437Z,98331.81
2022-08-20T15:04:03.203Z,98325.06
2022-08-20T15:06:31.334Z,98323.25
2022-08-20T15:08:57.895Z,98322.03
2022-08-20T15:11:24.548Z,98316.91
2022-08-20T15:13:51.100Z,98310.91
2022-08-20T15:16:18.088Z,98309.59
2022-08-20T15:18:44.668Z,98303.28
2022-08-20T15:21:11.348Z,98312.53
2022-08-20T15:23:37.962Z,98300.31
2022-08-20T15:26:05.552Z,98306.13
2022-08-20T15:28:32.034Z,98299.34
2022-08-20T15:30:58.676Z,98300.88
2022-08-20T15:33:25.209Z,98296.94
2022-08-20T15:35:51.783Z,98303.47
2022-08-20T15:38:18.497Z,98301.22
2022-08-20T15:40:45.133Z,98297.72
2022-08-20T15:43:11.669Z,98294.50
2022-08-20T15:45:38.553Z,98293.31
2022-08-20T15:48:16.551Z,98306.88
2022-08-20T15:50:53.918Z,98307.63
2022-08-20T15:53:27.507Z,98304.59
2022-08-20T15:55:59.911Z,98310.19
2022-08-20T15:58:37.180Z,98311.16
2022-08-20T16:01:24.714Z,98314.56
2022-08-20T16:04:04.133Z,98315.53
2022-08-20T16:06:32.481Z,98303.91
2022-08-20T16:09:04.169Z,98313.50
2022-08-20T16:11:43.209Z,98307.09
2022-08-20T16:14:09.665Z,98309.28
2022-08-20T16:16:42.993Z,98311.94
2022-08-20T16:19:12.320Z,98314.47
2022-08-20T16:21:41.501Z,98315.53
2022-08-20T16:24:12.831Z,98318.19
2022-08-20T16:26:40.370Z,98315.13
2022-08-20T16:29:43.492Z,98314.72
2022-08-20T16:32:13.775Z,98324.41
2022-08-20T16:35:04.005Z,98316.47
2022-08-20T16:37:50.452Z,98330.19
2022-08-20T16:40:23.352Z,98323.81
2022-08-20T16:42:52.331Z,98324.16
2022-08-20T16:45:25.963Z,98318.84
2022-08-20T16:47:55.521Z,98321.13
2022-08-20T16:50:24.956Z,98325.22
2022-08-20T16:52:52.362Z,98325.94
2022-08-20T16:55:21.474Z,98332.16
2022-08-20T16:57:48.780Z,98331.56
2022-08-20T17:00:35.026Z,98325.13
2022-08-20T17:03:01.651Z,98324.16
2022-08-20T17:05:48.311Z,98328.22
2022-08-20T17:08:21.512Z,98326.84
2022-08-20T17:10:57.544Z,98325.59
2022-08-20T17:13:30.506Z,98319.63
2022-08-20T17:16:18.861Z,98318.00
2022-08-20T17:18:51.190Z,98316.53
2022-08-20T17:21:27.176Z,98317.59
2022-08-20T17:24:09.768Z,98318.78
2022-08-20T17:26:47.283Z,98316.06
2022-08-20T17:29:19.818Z,98316.16
2022-08-20T17:31:50.368Z,98319.06
2022-08-20T17:34:22.947Z,98319.28
2022-08-20T17:37:17.980Z,98324.00
2022-08-20T17:39:47.754Z,98323.09
2022-08-20T17:42:26.792Z,98328.03
2022-08-20T17:45:16.100Z,98326.84
2022-08-20T17:47:43.860Z,98323.00
2022-08-20T17:50:18.048Z,98326.94
2022-08-20T17:52:49.233Z,98323.41
2022-08-20T17:55:16.016Z,98333.50
2022-08-20T17:57:46.045Z,98327.38
2022-08-20T18:00:17.562Z,98327.53
2022-08-20T18:02:44.772Z,98333.09
2022-08-20T18:05:18.632Z,98329.78
2022-08-20T18:08:02.471Z,98338.25
2022-08-20T18:10:29.833Z,98334.75
2022-08-20T18:13:02.374Z,98332.34
2022-08-20T18:15:31.408Z,98335.72
2022-08-20T18:18:17.230Z,98335.97
2022-08-20T18:21:08.544Z,98340.50
2022-08-20T18:23:42.234Z,98338.72
2022-08-20T18:26:18.599Z,98344.69
2022-08-20T18:28:52.346Z,98347.22
2022-08-20T18:31:27.180Z,98350.03
2022-08-20T18:33:54.159Z,98346.28
2022-08-20T18:36:20.664Z,98348.69
2022-08-20T18:39:29.836Z,98348.16
2022-08-20T18:41:59.397Z,98349.72
2022-08-20T18:44:37.803Z,98350.44
2022-08-20T18:47:06.961Z,98351.59
2022-08-20T18:49:39.207Z,98358.38
2022-08-20T18:52:22.317Z,98366.28
2022-08-20T18:54:53.031Z,98361.19
2022-08-20T18:57:25.413Z,98369.31
2022-08-20T19:00:01.084Z,98363.81
2022-08-20T19:02:35.025Z,98366.91
2022-08-20T19:05:05.365Z,98365.13
2022-08-20T19:07:48.036Z,98366.78
2022-08-20T19:10:42.633Z,98371.44
2022-08-20T19:13:36.831Z,98371.50
2022-08-20T19:16:10.510Z,98367.75
2022-08-20T19:18:42.257Z,98380.09
2022-08-20T19:21:15.993Z,98371.28
2022-08-20T19:23:49.318Z,98374.31
2022-08-20T19:26:25.276Z,98380.06
2022-08-20T19:28:57.158Z,98384.84
2022-08-20T19:31:29.926Z,98384.75
2022-08-20T19:34:22.915Z,98385.75
2022-08-20T19:37:34.904Z,98387.19
2022-08-20T19:40:02.298Z,98384.78
2022-08-20T19:42:33.367Z,98387.69
2022-08-20T19:45:06.326Z,98388.97
2022-08-20T19:47:54.671Z,98383.88
2022-08-20T19:50:54.783Z,98385.72
2022-08-20T19:53:30.389Z,98384.03
2022-08-20T19:56:19.984Z,98392.13
2022-08-20T19:59:00.038Z,98390.56
2022-08-20T20:01:27.859Z,98391.09
2022-08-20T20:04:00.462Z,98395.38
2022-08-20T20:06:28.733Z,98390.59
2022-08-20T20:09:00.915Z,98392.22
2022-08-20T20:11:35.707Z,98392.09
2022-08-20T20:14:08.120Z,98395.53
2022-08-20T20:16:36.090Z,98387.47
2022-08-20T20:19:25.217Z,98399.19
2022-08-20T20:22:04.633Z,98389.31
2022-08-20T20:24:44.797Z,98394.81
2022-08-20T20:27:20.882Z,98393.34
2022-08-20T20:29:48.680Z,98392.38
2022-08-20T20:32:21.532Z,98396.03
2022-08-20T20:34:56.704Z,98397.97
2022-08-20T20:37:49.170Z,98391.53
2022-08-20T20:40:20.451Z,98388.22
2022-08-20T20:42:57.486Z,98393.00
2022-08-20T20:45:30.929Z,98394.56
2022-08-20T20:47:57.906Z,98389.31
2022-08-20T20:50:36.174Z,98397.63
2022-08-20T20:53:02.809Z,98387.50
2022-08-20T20:55:34.026Z,98388.47
2022-08-20T20:58:02.538Z,98389.19
2022-08-20T21:00:31.686Z,98383.59
2022-08-20T21:02:58.655Z,98384.94
2022-08-20T21:05:29.221Z,98391.63
2022-08-20T21:08:01.394Z,98394.19
2022-08-20T21:10:34.407Z,98389.94
2022-08-20T21:13:03.408Z,98398.00
2022-08-20T21:15:30.708Z,98389.31
2022-08-20T21:18:02.463Z,98388.47
2022-08-20T21:20:29.707Z,98398.25
2022-08-20T21:22:58.437Z,98394.59
2022-08-20T21:25:29.563Z,98397.63
2022-08-20T21:27:56.256Z,98391.63
2022-08-20T21:30:24.556Z,98398.97
2022-08-20T21:32:51.197Z,98401.03
2022-08-20T21:35:18.030Z,98398.75
2022-08-20T21:37:44.687Z,98401.41
2022-08-20T21:40:12.455Z,98399.69
2022-08-20T21:42:40.172Z,98400.44
2022-08-20T21:45:08.278Z,98402.88
2022-08-20T21:47:35.162Z,98399.22
2022-08-20T21:50:02.010Z,98403.97
2022-08-20T21:52:28.694Z,98400.44
2022-08-20T21:54:55.308Z,98394.34
2022-08-20T21:57:25.281Z,98403.63
2022-08-20T21:59:52.403Z,98405.91
2022-08-20T22:02:19.570Z,98401.66
2022-08-20T22:04:46.101Z,98406.78
2022-08-20T22:07:13.795Z,98405.56
2022-08-20T22:09:40.208Z,98410.34
2022-08-20T22:12:13.940Z,98406.06
2022-08-20T22:14:40.663Z,98409.81
2022-08-20T22:17:07.274Z,98409.22
2022-08-20T22:19:33.825Z,98417.38
2022-08-20T22:22:00.443Z,98417.00
2022-08-20T22:24:28.611Z,98422.03
2022-08-20T22:26:55.431Z,98419.56
2022-08-20T22:29:22.271Z,98421.16
2022-08-20T22:31:49.043Z,98424.53
2022-08-20T22:34:17.429Z,98424.41
2022-08-20T22:36:44.270Z,98426.00
2022-08-20T22:39:10.894Z,98424.78
2022-08-20T22:41:38.022Z,98420.03
2022-08-20T22:44:04.793Z,98426.72
2022-08-20T22:46:36.476Z,98425.88
2022-08-20T22:49:04.794Z,98415.50
2022-08-20T22:51:34.599Z,98418.69
2022-08-20T22:54:03.692Z,98419.75
2022-08-20T22:56:30.316Z,98425.50
2022-08-20T22:58:59.128Z,98432.06
2022-08-20T23:01:26.836Z,98428.03
2022-08-20T23:03:53.507Z,98426.16
2022-08-20T23:06:20.201Z,98417.22
2022-08-20T23:08:46.905Z,98415.28
2022-08-20T23:11:13.449Z,98425.50
2022-08-20T23:13:40.093Z,98417.06
2022-08-20T23:16:06.970Z,98427.53
2022-08-20T23:18:33.686Z,98424.41
2022-08-20T23:21:00.800Z,98428.94
2022-08-20T23:23:27.584Z,98418.28
2022-08-20T23:25:54.802Z,98427.53
2022-08-20T23:28:23.414Z,98425.88
2022-08-20T23:30:50.702Z,98429.78
2022-08-20T23:33:17.454Z,98432.31
2022-08-20T23:35:45.068Z,98429.25
2022-08-20T23:38:12.139Z,98431.34
2022-08-20T23:40:39.028Z,98430.19
2022-08-20T23:43:05.878Z,98422.47
2022-08-20T23:45:32.764Z,98419.03
2022-08-20T23:47:59.423Z,98420.63
2022-08-20T23:50:29.119Z,98412.34
2022-08-20T23:52:56.729Z,98408.59
2022-08-20T23:55:23.801Z,98413.81
2022-08-20T23:57:50.455Z,98402.75
